Decoded Metar for LEPP (PAMPLONA in SPAIN) (IATA:PNA) | Meteo·Mobile Aviation Weather
aviador You're here:

LEPP Decoded Metar

PAMPLONA in SPAIN
Report Time2019-07-19 18:30:00
UTC Time2019-07-19 18:48:11
Flight Rules vfr VFR
Wind200° at 09 kt
W.Decomp.*RWY 15: 5.7 kt HW 7.0 kt RCW
Visibility9999 m
Phenomena:N/A
Clouds:Few TCU 050 Hf
Expected CloudBase > 8,400 ft AGL from Temp-Dew spread
CeilingNone
Temp32°C (ISA +20)
Dew Point11°C (27% RH)
Heat Index30.5°C
AAT29.0°C
QNH1012 hPa
Density Alt3,993 ft
Elevation1,506 ft
Report Wrong Elevation
Raw Report
LEPP 191830Z 20009KT 170V230 9999 FEW050TCU 32/11 Q1012=

Extra information for LEPP:More info

Metar Taf Metar & Taf Last 4 Metars F.Rules Stats Wind Profile Meteogram Temp Stats Airport Information Weather charts Add Link Nearby VenuesMetar ALERT Operation Metar Decoded Social comments